Date,TemperatureHighF,TemperatureAvgF,TemperatureLowF,DewpointHighF,DewpointAvgF,DewpointLowF,HumidityHigh,HumidityAvg,HumidityLow,PressureMaxIn,PressureMinIn,WindSpeedMaxMPH,WindSpeedAvgMPH,GustSpeedMaxMPH,PrecipitationSumIn
2013-3-3,41,36,32,26,23,17,77,63,38,21.32,21.26,25,2,25,0.00
2013-3-4,35,24,7,26,16,-2,79,70,53,21.52,21.21,16,2,16,0.00
2013-3-5,41,20,0,25,5,-9,70,54,25,21.61,21.52,6,0,6,0.00
2013-3-6,48,32,13,19,8,2,61,40,17,21.54,21.34,17,1,17,0.04
2013-3-7,52,38,26,15,10,2,45,32,15,21.45,21.38,14,1,14,0.01
2013-3-8,47,34,23,28,16,6,65,49,31,21.44,21.14,10,0,10,0.00
2013-3-9,39,29,20,31,19,8,77,66,57,21.40,21.11,8,1,8,0.01
2013-3-10,32,23,13,15,10,4,68,59,44,21.53,21.40,8,1,8,0.00
2013-3-11,34,26,16,23,15,6,78,63,55,21.53,21.40,17,3,17,0.01
2013-3-12,38,32,26,22,20,18,79,64,50,21.64,21.47,17,2,17,0.01
2013-3-13,47,36,27,25,20,17,68,53,34,21.74,21.63,12,2,12,0.05
2013-3-14,52,39,27,24,17,13,60,44,22,21.76,21.68,14,2,14,0.01
2013-3-15,53,43,34,20,18,16,50,37,24,21.68,21.47,11,4,11,0.00
2013-3-16,43,36,31,32,26,19,80,67,43,21.49,21.34,5,0,5,0.08
2013-3-17,36,29,24,25,18,7,78,63,40,21.35,21.13,12,2,12,0.01
2013-3-18,30,24,18,19,11,5,78,58,39,21.37,21.26,16,4,16,0.00
2013-3-19,36,28,20,15,2,-15,66,36,12,21.61,21.35,14,2,14,0.00
2013-3-20,43,28,13,26,11,-4,78,51,30,21.61,21.34,10,1,10,0.03
2013-3-21,38,30,23,27,22,13,83,72,59,21.34,21.15,10,1,10,0.01
2013-3-22,33,24,15,20,10,4,71,58,31,21.29,21.10,15,1,15,0.00
2013-3-23,29,20,13,14,9,4,75,62,45,21.36,21.14,2,0,2,0.00
2013-3-24,23,13,6,8,1,-3,68,60,48,21.42,21.31,5,1,5,0.00
2013-3-25,34,15,-1,9,0,-11,66,52,29,21.50,21.42,7,1,7,0.02
2013-3-26,42,26,9,23,11,-2,69,54,32,21.50,21.36,10,2,10,0.06
2013-3-27,47,37,30,29,23,18,76,57,35,21.53,21.41,8,1,8,0.09
2013-3-28,49,37,23,24,19,13,66,51,30,21.58,21.51,7,1,7,0.04
2013-3-29,49,37,29,33,25,18,76,61,37,21.62,21.55,7,1,7,0.01
2013-3-30,47,38,32,29,26,20,78,63,37,21.61,21.53,7,1,7,0.05
2013-3-31,32,27,24,24,20,17,74,72,71,21.60,21.57,2,0,2,0.00